sensor_id;sensor_type;location;lat;lon;timestamp;P1;durP1;ratioP1;P2;durP2;ratioP2
9722;SDS011;4900;49.306;8.500;2023-11-25T00:01:01;2.63;;;1.40;;
9722;SDS011;4900;49.306;8.500;2023-11-25T00:03:27;2.93;;;1.30;;
9722;SDS011;4900;49.306;8.500;2023-11-25T00:05:53;2.47;;;1.50;;
9722;SDS011;4900;49.306;8.500;2023-11-25T00:08:19;2.20;;;1.30;;
9722;SDS011;4900;49.306;8.500;2023-11-25T00:10:46;3.07;;;1.23;;
9722;SDS011;4900;49.306;8.500;2023-11-25T00:13:12;5.23;;;1.50;;
9722;SDS011;4900;49.306;8.500;2023-11-25T00:15:39;4.33;;;1.40;;
9722;SDS011;4900;49.306;8.500;2023-11-25T00:18:05;1.90;;;1.07;;
9722;SDS011;4900;49.306;8.500;2023-11-25T00:20:31;2.23;;;1.27;;
9722;SDS011;4900;49.306;8.500;2023-11-25T00:22:56;2.63;;;1.40;;
9722;SDS011;4900;49.306;8.500;2023-11-25T00:25:22;2.00;;;1.30;;
9722;SDS011;4900;49.306;8.500;2023-11-25T00:27:49;2.23;;;1.30;;
9722;SDS011;4900;49.306;8.500;2023-11-25T00:30:15;3.13;;;1.63;;
9722;SDS011;4900;49.306;8.500;2023-11-25T00:32:41;3.03;;;1.53;;
9722;SDS011;4900;49.306;8.500;2023-11-25T00:35:07;2.47;;;1.70;;
9722;SDS011;4900;49.306;8.500;2023-11-25T00:37:33;3.57;;;1.70;;
9722;SDS011;4900;49.306;8.500;2023-11-25T00:40:00;3.23;;;1.70;;
9722;SDS011;4900;49.306;8.500;2023-11-25T00:42:26;2.07;;;1.60;;
9722;SDS011;4900;49.306;8.500;2023-11-25T00:44:51;2.77;;;1.53;;
9722;SDS011;4900;49.306;8.500;2023-11-25T00:47:18;3.10;;;1.70;;
9722;SDS011;4900;49.306;8.500;2023-11-25T00:49:44;2.90;;;1.40;;
9722;SDS011;4900;49.306;8.500;2023-11-25T00:52:13;3.83;;;1.60;;
9722;SDS011;4900;49.306;8.500;2023-11-25T00:54:39;2.27;;;1.40;;
9722;SDS011;4900;49.306;8.500;2023-11-25T00:57:04;4.47;;;1.73;;
9722;SDS011;4900;49.306;8.500;2023-11-25T00:59:30;2.60;;;1.60;;
9722;SDS011;4900;49.306;8.500;2023-11-25T01:01:55;4.77;;;1.67;;
9722;SDS011;4900;49.306;8.500;2023-11-25T01:04:21;2.60;;;1.50;;
9722;SDS011;4900;49.306;8.500;2023-11-25T01:06:46;4.00;;;1.90;;
9722;SDS011;4900;49.306;8.500;2023-11-25T01:09:12;2.43;;;1.80;;
9722;SDS011;4900;49.306;8.500;2023-11-25T01:11:41;4.70;;;1.77;;
9722;SDS011;4900;49.306;8.500;2023-11-25T01:14:07;3.23;;;1.70;;
9722;SDS011;4900;49.306;8.500;2023-11-25T01:16:33;3.90;;;1.80;;
9722;SDS011;4900;49.306;8.500;2023-11-25T01:18:59;3.20;;;1.60;;
9722;SDS011;4900;49.306;8.500;2023-11-25T01:21:24;2.70;;;1.80;;
9722;SDS011;4900;49.306;8.500;2023-11-25T01:23:49;3.73;;;1.93;;
9722;SDS011;4900;49.306;8.500;2023-11-25T01:26:15;3.37;;;1.80;;
9722;SDS011;4900;49.306;8.500;2023-11-25T01:28:40;5.37;;;1.80;;
9722;SDS011;4900;49.306;8.500;2023-11-25T01:31:07;5.00;;;1.90;;
9722;SDS011;4900;49.306;8.500;2023-11-25T01:33:35;4.00;;;1.77;;
9722;SDS011;4900;49.306;8.500;2023-11-25T01:36:03;2.90;;;1.90;;
9722;SDS011;4900;49.306;8.500;2023-11-25T01:38:29;3.60;;;2.30;;
9722;SDS011;4900;49.306;8.500;2023-11-25T01:40:54;3.10;;;1.90;;
9722;SDS011;4900;49.306;8.500;2023-11-25T01:43:24;2.50;;;1.80;;
9722;SDS011;4900;49.306;8.500;2023-11-25T01:45:51;3.13;;;2.10;;
9722;SDS011;4900;49.306;8.500;2023-11-25T01:48:20;2.40;;;1.80;;
9722;SDS011;4900;49.306;8.500;2023-11-25T01:50:47;4.00;;;2.00;;
9722;SDS011;4900;49.306;8.500;2023-11-25T01:53:16;4.10;;;2.00;;
9722;SDS011;4900;49.306;8.500;2023-11-25T01:55:46;4.77;;;1.90;;
9722;SDS011;4900;49.306;8.500;2023-11-25T01:58:13;4.73;;;2.10;;
9722;SDS011;4900;49.306;8.500;2023-11-25T02:00:45;5.17;;;2.00;;
9722;SDS011;4900;49.306;8.500;2023-11-25T02:03:15;5.53;;;2.00;;
9722;SDS011;4900;49.306;8.500;2023-11-25T02:05:44;3.33;;;2.13;;
9722;SDS011;4900;49.306;8.500;2023-11-25T02:08:11;5.60;;;2.30;;
9722;SDS011;4900;49.306;8.500;2023-11-25T02:10:37;2.70;;;1.93;;
9722;SDS011;4900;49.306;8.500;2023-11-25T02:13:02;2.70;;;2.27;;
9722;SDS011;4900;49.306;8.500;2023-11-25T02:15:29;3.20;;;2.37;;
9722;SDS011;4900;49.306;8.500;2023-11-25T02:17:55;3.50;;;2.23;;
9722;SDS011;4900;49.306;8.500;2023-11-25T02:20:31;6.10;;;2.50;;
9722;SDS011;4900;49.306;8.500;2023-11-25T02:23:00;5.53;;;2.23;;
9722;SDS011;4900;49.306;8.500;2023-11-25T02:25:26;5.73;;;2.33;;
9722;SDS011;4900;49.306;8.500;2023-11-25T02:27:52;6.33;;;2.50;;
9722;SDS011;4900;49.306;8.500;2023-11-25T02:30:19;5.37;;;2.70;;
9722;SDS011;4900;49.306;8.500;2023-11-25T02:32:45;3.93;;;2.50;;
9722;SDS011;4900;49.306;8.500;2023-11-25T02:35:10;4.90;;;2.40;;
9722;SDS011;4900;49.306;8.500;2023-11-25T02:37:42;6.10;;;2.43;;
9722;SDS011;4900;49.306;8.500;2023-11-25T02:40:08;5.10;;;2.33;;
9722;SDS011;4900;49.306;8.500;2023-11-25T02:42:37;4.47;;;2.40;;
9722;SDS011;4900;49.306;8.500;2023-11-25T02:45:03;7.27;;;2.37;;
9722;SDS011;4900;49.306;8.500;2023-11-25T02:47:29;4.40;;;2.30;;
9722;SDS011;4900;49.306;8.500;2023-11-25T02:49:54;4.33;;;2.20;;
9722;SDS011;4900;49.306;8.500;2023-11-25T02:52:22;4.13;;;2.20;;
9722;SDS011;4900;49.306;8.500;2023-11-25T02:54:49;6.27;;;2.70;;
9722;SDS011;4900;49.306;8.500;2023-11-25T02:57:14;6.37;;;2.50;;
9722;SDS011;4900;49.306;8.500;2023-11-25T02:59:44;5.97;;;2.43;;
9722;SDS011;4900;49.306;8.500;2023-11-25T03:02:09;4.07;;;2.10;;
9722;SDS011;4900;49.306;8.500;2023-11-25T03:04:35;5.60;;;2.57;;
9722;SDS011;4900;49.306;8.500;2023-11-25T03:07:10;3.33;;;2.00;;
9722;SDS011;4900;49.306;8.500;2023-11-25T03:09:38;4.47;;;2.30;;
9722;SDS011;4900;49.306;8.500;2023-11-25T03:12:04;4.63;;;2.10;;
9722;SDS011;4900;49.306;8.500;2023-11-25T03:14:30;3.97;;;2.10;;
9722;SDS011;4900;49.306;8.500;2023-11-25T03:16:56;3.30;;;1.97;;
9722;SDS011;4900;49.306;8.500;2023-11-25T03:19:22;5.40;;;1.93;;
9722;SDS011;4900;49.306;8.500;2023-11-25T03:21:48;3.70;;;2.20;;
9722;SDS011;4900;49.306;8.500;2023-11-25T03:24:16;4.33;;;2.30;;
9722;SDS011;4900;49.306;8.500;2023-11-25T03:26:42;3.43;;;2.03;;
9722;SDS011;4900;49.306;8.500;2023-11-25T03:29:09;4.40;;;2.03;;
9722;SDS011;4900;49.306;8.500;2023-11-25T03:31:40;3.97;;;2.23;;
9722;SDS011;4900;49.306;8.500;2023-11-25T03:34:09;2.33;;;1.83;;
9722;SDS011;4900;49.306;8.500;2023-11-25T03:36:34;4.47;;;1.80;;
9722;SDS011;4900;49.306;8.500;2023-11-25T03:39:00;3.50;;;1.93;;
9722;SDS011;4900;49.306;8.500;2023-11-25T03:41:26;3.67;;;2.00;;
9722;SDS011;4900;49.306;8.500;2023-11-25T03:43:53;3.30;;;1.90;;
9722;SDS011;4900;49.306;8.500;2023-11-25T03:46:19;4.53;;;1.80;;
9722;SDS011;4900;49.306;8.500;2023-11-25T03:48:44;3.67;;;1.87;;
9722;SDS011;4900;49.306;8.500;2023-11-25T03:51:10;2.80;;;1.73;;
9722;SDS011;4900;49.306;8.500;2023-11-25T03:53:35;4.20;;;1.70;;
9722;SDS011;4900;49.306;8.500;2023-11-25T03:56:01;3.33;;;1.53;;
9722;SDS011;4900;49.306;8.500;2023-11-25T03:58:27;3.33;;;1.60;;
9722;SDS011;4900;49.306;8.500;2023-11-25T04:00:52;2.67;;;1.73;;
9722;SDS011;4900;49.306;8.500;2023-11-25T04:03:17;2.93;;;1.67;;
9722;SDS011;4900;49.306;8.500;2023-11-25T04:05:43;2.13;;;1.50;;
9722;SDS011;4900;49.306;8.500;2023-11-25T04:08:08;2.70;;;1.60;;
9722;SDS011;4900;49.306;8.500;2023-11-25T04:10:34;3.00;;;1.80;;
9722;SDS011;4900;49.306;8.500;2023-11-25T04:12:59;2.77;;;1.90;;
9722;SDS011;4900;49.306;8.500;2023-11-25T04:15:25;3.17;;;1.80;;
9722;SDS011;4900;49.306;8.500;2023-11-25T04:17:50;3.90;;;1.93;;
9722;SDS011;4900;49.306;8.500;2023-11-25T04:20:16;5.60;;;1.90;;
9722;SDS011;4900;49.306;8.500;2023-11-25T04:22:49;4.33;;;1.70;;
9722;SDS011;4900;49.306;8.500;2023-11-25T04:25:14;3.53;;;1.80;;
9722;SDS011;4900;49.306;8.500;2023-11-25T04:27:41;3.87;;;1.90;;
9722;SDS011;4900;49.306;8.500;2023-11-25T04:30:08;4.00;;;1.90;;
9722;SDS011;4900;49.306;8.500;2023-11-25T04:32:35;6.00;;;2.00;;
9722;SDS011;4900;49.306;8.500;2023-11-25T04:35:05;3.40;;;1.80;;
9722;SDS011;4900;49.306;8.500;2023-11-25T04:37:31;2.43;;;1.83;;
9722;SDS011;4900;49.306;8.500;2023-11-25T04:39:57;2.90;;;1.90;;
9722;SDS011;4900;49.306;8.500;2023-11-25T04:42:22;4.57;;;1.80;;
9722;SDS011;4900;49.306;8.500;2023-11-25T04:44:48;3.80;;;1.90;;
9722;SDS011;4900;49.306;8.500;2023-11-25T04:47:14;2.30;;;1.70;;
9722;SDS011;4900;49.306;8.500;2023-11-25T04:49:40;3.60;;;1.87;;
9722;SDS011;4900;49.306;8.500;2023-11-25T04:52:05;2.57;;;1.80;;
9722;SDS011;4900;49.306;8.500;2023-11-25T04:54:31;1.80;;;1.60;;
9722;SDS011;4900;49.306;8.500;2023-11-25T04:56:57;4.13;;;1.83;;
9722;SDS011;4900;49.306;8.500;2023-11-25T04:59:23;2.37;;;1.73;;
9722;SDS011;4900;49.306;8.500;2023-11-25T05:01:49;2.77;;;1.67;;
9722;SDS011;4900;49.306;8.500;2023-11-25T05:04:14;2.37;;;1.60;;
9722;SDS011;4900;49.306;8.500;2023-11-25T05:06:40;5.63;;;1.90;;
9722;SDS011;4900;49.306;8.500;2023-11-25T05:09:06;4.50;;;1.97;;
9722;SDS011;4900;49.306;8.500;2023-11-25T05:11:32;8.27;;;3.60;;
9722;SDS011;4900;49.306;8.500;2023-11-25T05:13:57;7.43;;;3.30;;
9722;SDS011;4900;49.306;8.500;2023-11-25T05:16:24;4.53;;;2.10;;
9722;SDS011;4900;49.306;8.500;2023-11-25T05:18:50;4.73;;;2.10;;
9722;SDS011;4900;49.306;8.500;2023-11-25T05:21:16;4.67;;;2.20;;
9722;SDS011;4900;49.306;8.500;2023-11-25T05:23:43;2.70;;;1.77;;
9722;SDS011;4900;49.306;8.500;2023-11-25T05:26:08;3.57;;;1.80;;
9722;SDS011;4900;49.306;8.500;2023-11-25T05:28:34;4.43;;;2.57;;
9722;SDS011;4900;49.306;8.500;2023-11-25T05:30:59;3.57;;;2.37;;
9722;SDS011;4900;49.306;8.500;2023-11-25T05:33:24;3.73;;;2.10;;
9722;SDS011;4900;49.306;8.500;2023-11-25T05:35:50;3.83;;;2.20;;
9722;SDS011;4900;49.306;8.500;2023-11-25T05:38:15;5.07;;;2.30;;
9722;SDS011;4900;49.306;8.500;2023-11-25T05:40:43;6.07;;;2.40;;
9722;SDS011;4900;49.306;8.500;2023-11-25T05:43:08;3.37;;;2.07;;
9722;SDS011;4900;49.306;8.500;2023-11-25T05:45:34;3.23;;;2.27;;
9722;SDS011;4900;49.306;8.500;2023-11-25T05:48:04;4.00;;;2.17;;
9722;SDS011;4900;49.306;8.500;2023-11-25T05:50:29;2.73;;;2.10;;
9722;SDS011;4900;49.306;8.500;2023-11-25T05:52:55;4.67;;;2.77;;
9722;SDS011;4900;49.306;8.500;2023-11-25T05:55:21;4.53;;;3.00;;
9722;SDS011;4900;49.306;8.500;2023-11-25T05:57:47;5.60;;;3.40;;
9722;SDS011;4900;49.306;8.500;2023-11-25T06:00:15;4.57;;;3.40;;
9722;SDS011;4900;49.306;8.500;2023-11-25T06:02:41;5.23;;;3.40;;
9722;SDS011;4900;49.306;8.500;2023-11-25T06:05:07;4.40;;;3.33;;
9722;SDS011;4900;49.306;8.500;2023-11-25T06:07:34;6.03;;;3.83;;
9722;SDS011;4900;49.306;8.500;2023-11-25T06:09:59;7.83;;;4.07;;
9722;SDS011;4900;49.306;8.500;2023-11-25T06:12:25;7.07;;;4.27;;
9722;SDS011;4900;49.306;8.500;2023-11-25T06:14:52;7.77;;;4.30;;
9722;SDS011;4900;49.306;8.500;2023-11-25T06:17:21;7.60;;;4.03;;
9722;SDS011;4900;49.306;8.500;2023-11-25T06:19:48;5.47;;;3.63;;
9722;SDS011;4900;49.306;8.500;2023-11-25T06:22:14;7.70;;;4.30;;
9722;SDS011;4900;49.306;8.500;2023-11-25T06:24:39;6.40;;;3.80;;
9722;SDS011;4900;49.306;8.500;2023-11-25T06:27:05;4.77;;;3.67;;
9722;SDS011;4900;49.306;8.500;2023-11-25T06:29:31;7.77;;;4.33;;
9722;SDS011;4900;49.306;8.500;2023-11-25T06:31:57;5.60;;;3.50;;
9722;SDS011;4900;49.306;8.500;2023-11-25T06:34:23;5.80;;;3.07;;
9722;SDS011;4900;49.306;8.500;2023-11-25T06:36:48;5.90;;;2.20;;
9722;SDS011;4900;49.306;8.500;2023-11-25T06:39:14;4.20;;;2.47;;
9722;SDS011;4900;49.306;8.500;2023-11-25T06:41:45;3.40;;;2.40;;
9722;SDS011;4900;49.306;8.500;2023-11-25T06:44:18;3.80;;;2.23;;
9722;SDS011;4900;49.306;8.500;2023-11-25T06:46:43;2.53;;;1.90;;
9722;SDS011;4900;49.306;8.500;2023-11-25T06:49:09;4.33;;;1.80;;
9722;SDS011;4900;49.306;8.500;2023-11-25T06:51:37;3.47;;;2.00;;
9722;SDS011;4900;49.306;8.500;2023-11-25T06:54:03;4.40;;;1.90;;
9722;SDS011;4900;49.306;8.500;2023-11-25T06:56:28;3.80;;;2.30;;
9722;SDS011;4900;49.306;8.500;2023-11-25T06:58:54;3.33;;;1.90;;
9722;SDS011;4900;49.306;8.500;2023-11-25T07:01:20;3.87;;;2.20;;
9722;SDS011;4900;49.306;8.500;2023-11-25T07:03:47;2.73;;;1.97;;
9722;SDS011;4900;49.306;8.500;2023-11-25T07:06:13;5.03;;;2.20;;
9722;SDS011;4900;49.306;8.500;2023-11-25T07:08:39;6.07;;;2.20;;
9722;SDS011;4900;49.306;8.500;2023-11-25T07:11:04;3.80;;;2.13;;
9722;SDS011;4900;49.306;8.500;2023-11-25T07:13:35;4.13;;;1.93;;
9722;SDS011;4900;49.306;8.500;2023-11-25T07:16:01;3.00;;;1.97;;
9722;SDS011;4900;49.306;8.500;2023-11-25T07:18:31;5.87;;;2.47;;
9722;SDS011;4900;49.306;8.500;2023-11-25T07:20:58;3.40;;;2.10;;
9722;SDS011;4900;49.306;8.500;2023-11-25T07:23:24;6.77;;;2.70;;
9722;SDS011;4900;49.306;8.500;2023-11-25T07:25:50;5.20;;;2.60;;
9722;SDS011;4900;49.306;8.500;2023-11-25T07:28:15;3.83;;;2.03;;
9722;SDS011;4900;49.306;8.500;2023-11-25T07:30:41;3.73;;;2.20;;
9722;SDS011;4900;49.306;8.500;2023-11-25T07:33:07;5.90;;;2.13;;
9722;SDS011;4900;49.306;8.500;2023-11-25T07:35:33;3.03;;;2.13;;
9722;SDS011;4900;49.306;8.500;2023-11-25T07:37:59;3.97;;;2.07;;
9722;SDS011;4900;49.306;8.500;2023-11-25T07:40:27;4.43;;;2.00;;
9722;SDS011;4900;49.306;8.500;2023-11-25T07:42:53;2.37;;;1.80;;
9722;SDS011;4900;49.306;8.500;2023-11-25T07:45:18;4.73;;;1.80;;
9722;SDS011;4900;49.306;8.500;2023-11-25T07:47:44;3.53;;;1.90;;
9722;SDS011;4900;49.306;8.500;2023-11-25T07:50:10;3.10;;;1.63;;
9722;SDS011;4900;49.306;8.500;2023-11-25T07:52:36;3.13;;;1.60;;
9722;SDS011;4900;49.306;8.500;2023-11-25T07:55:02;3.93;;;1.80;;
9722;SDS011;4900;49.306;8.500;2023-11-25T07:57:32;3.00;;;1.90;;
9722;SDS011;4900;49.306;8.500;2023-11-25T07:59:58;2.00;;;1.80;;
9722;SDS011;4900;49.306;8.500;2023-11-25T08:02:23;2.80;;;2.00;;
9722;SDS011;4900;49.306;8.500;2023-11-25T08:04:50;3.93;;;2.30;;
9722;SDS011;4900;49.306;8.500;2023-11-25T08:07:17;4.93;;;2.13;;
9722;SDS011;4900;49.306;8.500;2023-11-25T08:09:42;3.13;;;1.70;;
9722;SDS011;4900;49.306;8.500;2023-11-25T08:12:08;6.50;;;1.90;;
9722;SDS011;4900;49.306;8.500;2023-11-25T08:14:34;2.93;;;1.73;;
9722;SDS011;4900;49.306;8.500;2023-11-25T08:17:01;5.23;;;3.13;;
9722;SDS011;4900;49.306;8.500;2023-11-25T08:19:27;5.77;;;3.10;;
9722;SDS011;4900;49.306;8.500;2023-11-25T08:21:52;4.97;;;2.57;;
9722;SDS011;4900;49.306;8.500;2023-11-25T08:24:18;6.67;;;3.13;;
9722;SDS011;4900;49.306;8.500;2023-11-25T08:26:43;5.90;;;2.67;;
9722;SDS011;4900;49.306;8.500;2023-11-25T08:29:09;5.23;;;2.93;;
9722;SDS011;4900;49.306;8.500;2023-11-25T08:31:36;4.93;;;2.73;;
9722;SDS011;4900;49.306;8.500;2023-11-25T08:34:02;4.67;;;2.40;;
9722;SDS011;4900;49.306;8.500;2023-11-25T08:36:43;5.00;;;2.53;;
9722;SDS011;4900;49.306;8.500;2023-11-25T08:39:18;4.40;;;2.73;;
9722;SDS011;4900;49.306;8.500;2023-11-25T08:41:50;5.23;;;2.50;;
9722;SDS011;4900;49.306;8.500;2023-11-25T08:44:18;4.10;;;2.70;;
9722;SDS011;4900;49.306;8.500;2023-11-25T08:46:44;6.00;;;2.50;;
9722;SDS011;4900;49.306;8.500;2023-11-25T08:49:10;3.60;;;2.43;;
9722;SDS011;4900;49.306;8.500;2023-11-25T08:51:36;3.57;;;2.50;;
9722;SDS011;4900;49.306;8.500;2023-11-25T08:54:05;5.40;;;2.27;;
9722;SDS011;4900;49.306;8.500;2023-11-25T08:56:30;4.10;;;2.27;;
9722;SDS011;4900;49.306;8.500;2023-11-25T08:59:00;4.67;;;2.70;;
9722;SDS011;4900;49.306;8.500;2023-11-25T09:01:27;6.50;;;2.73;;
9722;SDS011;4900;49.306;8.500;2023-11-25T09:03:57;4.07;;;2.30;;
9722;SDS011;4900;49.306;8.500;2023-11-25T09:06:24;3.63;;;2.13;;
9722;SDS011;4900;49.306;8.500;2023-11-25T09:08:49;5.10;;;2.40;;
9722;SDS011;4900;49.306;8.500;2023-11-25T09:11:15;5.10;;;2.30;;
9722;SDS011;4900;49.306;8.500;2023-11-25T09:13:40;5.90;;;2.53;;
9722;SDS011;4900;49.306;8.500;2023-11-25T09:16:06;4.17;;;2.20;;
9722;SDS011;4900;49.306;8.500;2023-11-25T09:18:31;5.00;;;2.33;;
9722;SDS011;4900;49.306;8.500;2023-11-25T09:20:57;4.67;;;2.47;;
9722;SDS011;4900;49.306;8.500;2023-11-25T09:23:22;9.67;;;3.20;;
9722;SDS011;4900;49.306;8.500;2023-11-25T09:25:48;7.27;;;3.27;;
9722;SDS011;4900;49.306;8.500;2023-11-25T09:28:13;6.10;;;3.33;;
9722;SDS011;4900;49.306;8.500;2023-11-25T09:30:39;7.57;;;3.47;;
9722;SDS011;4900;49.306;8.500;2023-11-25T09:33:05;8.10;;;4.47;;
9722;SDS011;4900;49.306;8.500;2023-11-25T09:35:30;6.43;;;3.40;;
9722;SDS011;4900;49.306;8.500;2023-11-25T09:37:56;6.23;;;3.30;;
9722;SDS011;4900;49.306;8.500;2023-11-25T09:40:21;5.60;;;2.93;;
9722;SDS011;4900;49.306;8.500;2023-11-25T09:42:50;7.43;;;3.60;;
9722;SDS011;4900;49.306;8.500;2023-11-25T09:45:16;6.67;;;3.03;;
9722;SDS011;4900;49.306;8.500;2023-11-25T09:47:42;6.47;;;2.73;;
9722;SDS011;4900;49.306;8.500;2023-11-25T09:50:08;5.90;;;2.60;;
9722;SDS011;4900;49.306;8.500;2023-11-25T09:52:35;5.70;;;2.37;;
9722;SDS011;4900;49.306;8.500;2023-11-25T09:55:08;7.67;;;2.33;;
9722;SDS011;4900;49.306;8.500;2023-11-25T09:57:34;4.63;;;2.07;;
9722;SDS011;4900;49.306;8.500;2023-11-25T10:00:00;8.10;;;2.40;;
9722;SDS011;4900;49.306;8.500;2023-11-25T10:02:31;5.77;;;2.30;;
9722;SDS011;4900;49.306;8.500;2023-11-25T10:04:58;5.00;;;2.00;;
9722;SDS011;4900;49.306;8.500;2023-11-25T10:07:24;8.83;;;2.43;;
9722;SDS011;4900;49.306;8.500;2023-11-25T10:09:50;6.57;;;2.30;;
9722;SDS011;4900;49.306;8.500;2023-11-25T10:12:17;4.37;;;2.43;;
9722;SDS011;4900;49.306;8.500;2023-11-25T10:14:43;5.60;;;2.40;;
9722;SDS011;4900;49.306;8.500;2023-11-25T10:17:30;7.57;;;2.37;;
9722;SDS011;4900;49.306;8.500;2023-11-25T10:20:07;8.27;;;3.00;;
9722;SDS011;4900;49.306;8.500;2023-11-25T10:22:47;7.90;;;3.77;;
9722;SDS011;4900;49.306;8.500;2023-11-25T10:25:17;7.97;;;3.20;;
9722;SDS011;4900;49.306;8.500;2023-11-25T10:27:43;6.20;;;3.50;;
9722;SDS011;4900;49.306;8.500;2023-11-25T10:30:13;7.47;;;3.17;;
9722;SDS011;4900;49.306;8.500;2023-11-25T10:32:40;6.60;;;2.80;;
9722;SDS011;4900;49.306;8.500;2023-11-25T10:35:06;10.00;;;3.20;;
9722;SDS011;4900;49.306;8.500;2023-11-25T10:37:39;8.50;;;3.00;;
9722;SDS011;4900;49.306;8.500;2023-11-25T10:40:08;7.43;;;2.80;;
9722;SDS011;4900;49.306;8.500;2023-11-25T10:42:35;11.53;;;3.07;;
9722;SDS011;4900;49.306;8.500;2023-11-25T10:45:02;5.37;;;2.67;;
9722;SDS011;4900;49.306;8.500;2023-11-25T10:47:32;9.97;;;2.80;;
9722;SDS011;4900;49.306;8.500;2023-11-25T10:49:59;6.37;;;2.40;;
9722;SDS011;4900;49.306;8.500;2023-11-25T10:52:27;6.73;;;2.87;;
9722;SDS011;4900;49.306;8.500;2023-11-25T10:54:57;7.57;;;2.70;;
9722;SDS011;4900;49.306;8.500;2023-11-25T10:57:23;7.73;;;2.77;;
9722;SDS011;4900;49.306;8.500;2023-11-25T10:59:50;11.43;;;3.43;;
9722;SDS011;4900;49.306;8.500;2023-11-25T11:04:56;7.70;;;3.20;;
9722;SDS011;4900;49.306;8.500;2023-11-25T11:07:23;8.80;;;3.03;;
9722;SDS011;4900;49.306;8.500;2023-11-25T11:09:51;9.93;;;3.33;;
9722;SDS011;4900;49.306;8.500;2023-11-25T11:12:42;7.53;;;2.57;;
9722;SDS011;4900;49.306;8.500;2023-11-25T11:15:20;11.43;;;3.47;;
9722;SDS011;4900;49.306;8.500;2023-11-25T11:20:32;10.27;;;4.53;;
9722;SDS011;4900;49.306;8.500;2023-11-25T11:23:04;10.27;;;3.60;;
9722;SDS011;4900;49.306;8.500;2023-11-25T11:25:32;11.30;;;4.57;;
9722;SDS011;4900;49.306;8.500;2023-11-25T11:28:06;11.20;;;4.97;;
9722;SDS011;4900;49.306;8.500;2023-11-25T11:33:12;9.70;;;4.07;;
9722;SDS011;4900;49.306;8.500;2023-11-25T11:35:39;12.60;;;4.63;;
9722;SDS011;4900;49.306;8.500;2023-11-25T11:41:22;11.00;;;4.57;;
9722;SDS011;4900;49.306;8.500;2023-11-25T11:44:06;11.53;;;4.17;;
9722;SDS011;4900;49.306;8.500;2023-11-25T11:46:33;7.83;;;3.30;;
9722;SDS011;4900;49.306;8.500;2023-11-25T11:49:07;10.30;;;3.40;;
9722;SDS011;4900;49.306;8.500;2023-11-25T11:54:25;7.17;;;2.70;;
9722;SDS011;4900;49.306;8.500;2023-11-25T11:59:50;8.07;;;2.93;;
9722;SDS011;4900;49.306;8.500;2023-11-25T12:02:28;5.63;;;2.90;;
9722;SDS011;4900;49.306;8.500;2023-11-25T12:04:57;9.40;;;3.20;;
9722;SDS011;4900;49.306;8.500;2023-11-25T12:07:23;5.97;;;2.77;;
9722;SDS011;4900;49.306;8.500;2023-11-25T12:09:51;10.23;;;3.60;;
9722;SDS011;4900;49.306;8.500;2023-11-25T12:12:17;8.43;;;2.90;;
9722;SDS011;4900;49.306;8.500;2023-11-25T12:14:42;5.03;;;2.63;;
9722;SDS011;4900;49.306;8.500;2023-11-25T12:17:10;9.70;;;3.23;;
9722;SDS011;4900;49.306;8.500;2023-11-25T12:19:35;6.73;;;3.03;;
9722;SDS011;4900;49.306;8.500;2023-11-25T12:22:01;6.33;;;2.93;;
9722;SDS011;4900;49.306;8.500;2023-11-25T12:24:31;9.17;;;3.03;;
9722;SDS011;4900;49.306;8.500;2023-11-25T12:26:58;7.00;;;3.03;;
9722;SDS011;4900;49.306;8.500;2023-11-25T12:29:26;10.00;;;3.07;;
9722;SDS011;4900;49.306;8.500;2023-11-25T12:31:51;9.40;;;3.10;;
9722;SDS011;4900;49.306;8.500;2023-11-25T12:34:16;7.77;;;3.43;;
9722;SDS011;4900;49.306;8.500;2023-11-25T12:36:42;7.50;;;3.50;;
9722;SDS011;4900;49.306;8.500;2023-11-25T12:39:07;7.47;;;3.33;;
9722;SDS011;4900;49.306;8.500;2023-11-25T12:41:38;8.37;;;3.60;;
9722;SDS011;4900;49.306;8.500;2023-11-25T12:44:05;8.07;;;2.90;;
9722;SDS011;4900;49.306;8.500;2023-11-25T12:46:34;7.97;;;4.73;;
9722;SDS011;4900;49.306;8.500;2023-11-25T12:51:46;10.37;;;3.90;;
9722;SDS011;4900;49.306;8.500;2023-11-25T12:54:12;14.50;;;8.10;;
9722;SDS011;4900;49.306;8.500;2023-11-25T12:56:39;12.23;;;7.03;;
9722;SDS011;4900;49.306;8.500;2023-11-25T12:59:07;13.30;;;7.83;;
9722;SDS011;4900;49.306;8.500;2023-11-25T13:01:32;14.37;;;6.97;;
9722;SDS011;4900;49.306;8.500;2023-11-25T13:04:02;13.43;;;6.80;;
9722;SDS011;4900;49.306;8.500;2023-11-25T13:06:28;14.80;;;5.50;;
9722;SDS011;4900;49.306;8.500;2023-11-25T13:08:54;7.93;;;4.43;;
9722;SDS011;4900;49.306;8.500;2023-11-25T13:11:20;10.83;;;3.97;;
9722;SDS011;4900;49.306;8.500;2023-11-25T13:13:45;6.77;;;3.20;;
9722;SDS011;4900;49.306;8.500;2023-11-25T13:16:11;8.50;;;4.17;;
9722;SDS011;4900;49.306;8.500;2023-11-25T13:18:45;5.37;;;3.50;;
9722;SDS011;4900;49.306;8.500;2023-11-25T13:21:11;5.37;;;3.67;;
9722;SDS011;4900;49.306;8.500;2023-11-25T13:23:36;7.80;;;3.70;;
9722;SDS011;4900;49.306;8.500;2023-11-25T13:26:02;6.37;;;3.80;;
9722;SDS011;4900;49.306;8.500;2023-11-25T13:28:28;9.63;;;3.57;;
9722;SDS011;4900;49.306;8.500;2023-11-25T13:30:54;8.47;;;3.70;;
9722;SDS011;4900;49.306;8.500;2023-11-25T13:33:19;8.17;;;3.80;;
9722;SDS011;4900;49.306;8.500;2023-11-25T13:35:45;6.63;;;4.33;;
9722;SDS011;4900;49.306;8.500;2023-11-25T13:38:11;5.47;;;3.87;;
9722;SDS011;4900;49.306;8.500;2023-11-25T13:40:37;8.40;;;4.70;;
9722;SDS011;4900;49.306;8.500;2023-11-25T13:43:04;9.60;;;4.53;;
9722;SDS011;4900;49.306;8.500;2023-11-25T13:45:31;7.13;;;3.50;;
9722;SDS011;4900;49.306;8.500;2023-11-25T13:47:57;10.10;;;4.37;;
9722;SDS011;4900;49.306;8.500;2023-11-25T13:50:23;7.53;;;4.30;;
9722;SDS011;4900;49.306;8.500;2023-11-25T13:52:50;9.83;;;4.33;;
9722;SDS011;4900;49.306;8.500;2023-11-25T13:55:18;10.17;;;4.00;;
9722;SDS011;4900;49.306;8.500;2023-11-25T13:57:46;7.67;;;3.50;;
9722;SDS011;4900;49.306;8.500;2023-11-25T14:00:15;6.63;;;3.23;;
9722;SDS011;4900;49.306;8.500;2023-11-25T14:02:44;6.83;;;3.53;;
9722;SDS011;4900;49.306;8.500;2023-11-25T14:05:12;6.87;;;3.47;;
9722;SDS011;4900;49.306;8.500;2023-11-25T14:07:39;5.00;;;2.97;;
9722;SDS011;4900;49.306;8.500;2023-11-25T14:10:07;5.30;;;2.57;;
9722;SDS011;4900;49.306;8.500;2023-11-25T14:12:36;5.83;;;3.80;;
9722;SDS011;4900;49.306;8.500;2023-11-25T14:15:02;9.40;;;4.40;;
9722;SDS011;4900;49.306;8.500;2023-11-25T14:17:29;6.73;;;3.73;;
9722;SDS011;4900;49.306;8.500;2023-11-25T14:19:55;5.90;;;4.10;;
9722;SDS011;4900;49.306;8.500;2023-11-25T14:22:21;7.33;;;4.10;;
9722;SDS011;4900;49.306;8.500;2023-11-25T14:24:47;8.33;;;4.00;;
9722;SDS011;4900;49.306;8.500;2023-11-25T14:27:12;5.83;;;3.80;;
9722;SDS011;4900;49.306;8.500;2023-11-25T14:29:38;5.30;;;3.80;;
9722;SDS011;4900;49.306;8.500;2023-11-25T14:32:04;5.10;;;3.20;;
9722;SDS011;4900;49.306;8.500;2023-11-25T14:34:30;6.20;;;3.40;;
9722;SDS011;4900;49.306;8.500;2023-11-25T14:36:55;6.63;;;3.30;;
9722;SDS011;4900;49.306;8.500;2023-11-25T14:39:21;7.50;;;3.70;;
9722;SDS011;4900;49.306;8.500;2023-11-25T14:41:58;6.07;;;3.73;;
9722;SDS011;4900;49.306;8.500;2023-11-25T14:44:27;5.17;;;3.27;;
9722;SDS011;4900;49.306;8.500;2023-11-25T14:46:54;3.83;;;3.00;;
9722;SDS011;4900;49.306;8.500;2023-11-25T14:49:20;4.97;;;3.10;;
9722;SDS011;4900;49.306;8.500;2023-11-25T14:51:46;6.20;;;3.00;;
9722;SDS011;4900;49.306;8.500;2023-11-25T14:54:11;3.70;;;2.70;;
9722;SDS011;4900;49.306;8.500;2023-11-25T14:56:36;4.13;;;2.70;;
9722;SDS011;4900;49.306;8.500;2023-11-25T14:59:02;5.93;;;2.73;;
9722;SDS011;4900;49.306;8.500;2023-11-25T15:01:30;4.70;;;3.17;;
9722;SDS011;4900;49.306;8.500;2023-11-25T15:03:56;4.20;;;2.67;;
9722;SDS011;4900;49.306;8.500;2023-11-25T15:06:21;4.57;;;2.67;;
9722;SDS011;4900;49.306;8.500;2023-11-25T15:08:47;8.73;;;6.10;;
9722;SDS011;4900;49.306;8.500;2023-11-25T15:11:12;6.30;;;3.77;;
9722;SDS011;4900;49.306;8.500;2023-11-25T15:13:38;4.57;;;3.03;;
9722;SDS011;4900;49.306;8.500;2023-11-25T15:16:03;4.80;;;2.80;;
9722;SDS011;4900;49.306;8.500;2023-11-25T15:18:29;4.63;;;2.80;;
9722;SDS011;4900;49.306;8.500;2023-11-25T15:20:55;4.90;;;2.73;;
9722;SDS011;4900;49.306;8.500;2023-11-25T15:23:21;3.33;;;2.80;;
9722;SDS011;4900;49.306;8.500;2023-11-25T15:25:48;3.63;;;2.80;;
9722;SDS011;4900;49.306;8.500;2023-11-25T15:28:14;3.83;;;2.87;;
9722;SDS011;4900;49.306;8.500;2023-11-25T15:30:41;5.57;;;3.23;;
9722;SDS011;4900;49.306;8.500;2023-11-25T15:33:07;4.80;;;2.97;;